sensor_id;sensor_type;location;lat;lon;timestamp;P1;durP1;ratioP1;P2;durP2;ratioP2
45077;SDS011;60508;42.622;25.416;2023-09-30T00:00:47;17.75;;;4.57;;
45077;SDS011;60508;42.622;25.416;2023-09-30T00:03:14;15.48;;;4.68;;
45077;SDS011;60508;42.622;25.416;2023-09-30T00:05:41;12.10;;;4.40;;
45077;SDS011;60508;42.622;25.416;2023-09-30T00:08:17;20.17;;;3.97;;
45077;SDS011;60508;42.622;25.416;2023-09-30T00:10:44;11.77;;;4.25;;
45077;SDS011;60508;42.622;25.416;2023-09-30T00:13:12;17.77;;;4.43;;
45077;SDS011;60508;42.622;25.416;2023-09-30T00:15:39;7.65;;;4.13;;
45077;SDS011;60508;42.622;25.416;2023-09-30T00:18:16;17.25;;;4.78;;
45077;SDS011;60508;42.622;25.416;2023-09-30T00:20:42;14.55;;;4.03;;
45077;SDS011;60508;42.622;25.416;2023-09-30T00:23:09;17.38;;;5.50;;
45077;SDS011;60508;42.622;25.416;2023-09-30T00:25:36;11.82;;;4.03;;
45077;SDS011;60508;42.622;25.416;2023-09-30T00:28:02;6.53;;;3.78;;
45077;SDS011;60508;42.622;25.416;2023-09-30T00:30:29;10.98;;;4.60;;
45077;SDS011;60508;42.622;25.416;2023-09-30T00:33:03;16.02;;;5.07;;
45077;SDS011;60508;42.622;25.416;2023-09-30T00:35:31;21.63;;;5.05;;
45077;SDS011;60508;42.622;25.416;2023-09-30T00:37:59;24.42;;;5.00;;
45077;SDS011;60508;42.622;25.416;2023-09-30T00:40:25;9.85;;;3.55;;
45077;SDS011;60508;42.622;25.416;2023-09-30T00:42:52;12.07;;;4.15;;
45077;SDS011;60508;42.622;25.416;2023-09-30T00:45:19;15.02;;;4.05;;
45077;SDS011;60508;42.622;25.416;2023-09-30T00:47:55;11.07;;;3.63;;
45077;SDS011;60508;42.622;25.416;2023-09-30T00:50:22;11.43;;;4.38;;
45077;SDS011;60508;42.622;25.416;2023-09-30T00:52:51;19.05;;;4.65;;
45077;SDS011;60508;42.622;25.416;2023-09-30T00:55:18;7.95;;;3.97;;
45077;SDS011;60508;42.622;25.416;2023-09-30T00:57:45;24.30;;;4.13;;
45077;SDS011;60508;42.622;25.416;2023-09-30T01:00:13;11.73;;;4.93;;
45077;SDS011;60508;42.622;25.416;2023-09-30T01:02:41;10.40;;;4.07;;
45077;SDS011;60508;42.622;25.416;2023-09-30T01:05:10;15.65;;;3.97;;
45077;SDS011;60508;42.622;25.416;2023-09-30T01:07:37;13.20;;;4.05;;
45077;SDS011;60508;42.622;25.416;2023-09-30T01:10:04;8.95;;;4.60;;
45077;SDS011;60508;42.622;25.416;2023-09-30T01:12:38;8.13;;;4.05;;
45077;SDS011;60508;42.622;25.416;2023-09-30T01:15:05;11.93;;;4.43;;
45077;SDS011;60508;42.622;25.416;2023-09-30T01:17:32;9.00;;;4.25;;
45077;SDS011;60508;42.622;25.416;2023-09-30T01:20:09;9.02;;;4.22;;
45077;SDS011;60508;42.622;25.416;2023-09-30T01:22:41;13.40;;;3.85;;
45077;SDS011;60508;42.622;25.416;2023-09-30T01:25:08;17.40;;;4.28;;
45077;SDS011;60508;42.622;25.416;2023-09-30T01:27:36;18.65;;;4.47;;
45077;SDS011;60508;42.622;25.416;2023-09-30T01:30:03;12.18;;;4.35;;
45077;SDS011;60508;42.622;25.416;2023-09-30T01:32:31;12.07;;;5.35;;
45077;SDS011;60508;42.622;25.416;2023-09-30T01:35:08;11.63;;;4.15;;
45077;SDS011;60508;42.622;25.416;2023-09-30T01:37:38;7.75;;;3.70;;
45077;SDS011;60508;42.622;25.416;2023-09-30T01:40:05;10.50;;;4.10;;
45077;SDS011;60508;42.622;25.416;2023-09-30T01:42:34;18.50;;;4.95;;
45077;SDS011;60508;42.622;25.416;2023-09-30T01:45:02;7.70;;;5.03;;
45077;SDS011;60508;42.622;25.416;2023-09-30T01:47:29;7.07;;;4.20;;
45077;SDS011;60508;42.622;25.416;2023-09-30T01:49:56;9.80;;;4.55;;
45077;SDS011;60508;42.622;25.416;2023-09-30T01:52:31;6.75;;;3.58;;
45077;SDS011;60508;42.622;25.416;2023-09-30T01:54:58;11.65;;;4.35;;
45077;SDS011;60508;42.622;25.416;2023-09-30T01:57:25;11.98;;;4.40;;
45077;SDS011;60508;42.622;25.416;2023-09-30T02:00:02;14.70;;;4.20;;
45077;SDS011;60508;42.622;25.416;2023-09-30T02:02:39;13.93;;;4.97;;
45077;SDS011;60508;42.622;25.416;2023-09-30T02:05:16;10.13;;;4.30;;
45077;SDS011;60508;42.622;25.416;2023-09-30T02:07:43;9.77;;;3.97;;
45077;SDS011;60508;42.622;25.416;2023-09-30T02:10:10;20.58;;;4.80;;
45077;SDS011;60508;42.622;25.416;2023-09-30T02:12:36;18.52;;;5.10;;
45077;SDS011;60508;42.622;25.416;2023-09-30T02:15:04;11.30;;;4.10;;
45077;SDS011;60508;42.622;25.416;2023-09-30T02:17:33;6.95;;;4.10;;
45077;SDS011;60508;42.622;25.416;2023-09-30T02:19:59;10.75;;;4.45;;
45077;SDS011;60508;42.622;25.416;2023-09-30T02:22:39;11.55;;;4.22;;
45077;SDS011;60508;42.622;25.416;2023-09-30T02:25:06;17.63;;;5.00;;
45077;SDS011;60508;42.622;25.416;2023-09-30T02:27:34;14.57;;;4.45;;
45077;SDS011;60508;42.622;25.416;2023-09-30T02:30:02;14.25;;;4.32;;
45077;SDS011;60508;42.622;25.416;2023-09-30T02:32:40;11.38;;;4.95;;
45077;SDS011;60508;42.622;25.416;2023-09-30T02:35:07;19.23;;;4.90;;
45077;SDS011;60508;42.622;25.416;2023-09-30T02:37:37;18.40;;;4.88;;
45077;SDS011;60508;42.622;25.416;2023-09-30T02:40:14;10.50;;;4.32;;
45077;SDS011;60508;42.622;25.416;2023-09-30T02:42:41;13.93;;;4.60;;
45077;SDS011;60508;42.622;25.416;2023-09-30T02:45:07;19.90;;;4.32;;
45077;SDS011;60508;42.622;25.416;2023-09-30T02:47:35;10.63;;;4.22;;
45077;SDS011;60508;42.622;25.416;2023-09-30T02:50:02;25.33;;;4.70;;
45077;SDS011;60508;42.622;25.416;2023-09-30T02:52:31;6.47;;;4.63;;
45077;SDS011;60508;42.622;25.416;2023-09-30T02:54:58;12.95;;;4.47;;
45077;SDS011;60508;42.622;25.416;2023-09-30T02:57:25;10.20;;;4.90;;
45077;SDS011;60508;42.622;25.416;2023-09-30T02:59:53;17.27;;;3.97;;
45077;SDS011;60508;42.622;25.416;2023-09-30T03:02:20;17.45;;;4.05;;
45077;SDS011;60508;42.622;25.416;2023-09-30T03:04:57;21.02;;;5.22;;
45077;SDS011;60508;42.622;25.416;2023-09-30T03:07:24;5.63;;;3.30;;
45077;SDS011;60508;42.622;25.416;2023-09-30T03:09:51;15.68;;;4.88;;
45077;SDS011;60508;42.622;25.416;2023-09-30T03:12:27;16.77;;;4.45;;
45077;SDS011;60508;42.622;25.416;2023-09-30T03:14:55;11.75;;;4.57;;
45077;SDS011;60508;42.622;25.416;2023-09-30T03:17:22;17.60;;;5.32;;
45077;SDS011;60508;42.622;25.416;2023-09-30T03:19:48;9.85;;;5.20;;
45077;SDS011;60508;42.622;25.416;2023-09-30T03:22:25;15.52;;;5.65;;
45077;SDS011;60508;42.622;25.416;2023-09-30T03:24:54;15.77;;;4.93;;
45077;SDS011;60508;42.622;25.416;2023-09-30T03:27:23;13.48;;;5.60;;
45077;SDS011;60508;42.622;25.416;2023-09-30T03:29:57;26.02;;;8.35;;
45077;SDS011;60508;42.622;25.416;2023-09-30T03:32:23;12.07;;;6.97;;
45077;SDS011;60508;42.622;25.416;2023-09-30T03:34:52;13.88;;;4.93;;
45077;SDS011;60508;42.622;25.416;2023-09-30T03:37:18;17.27;;;5.82;;
45077;SDS011;60508;42.622;25.416;2023-09-30T03:39:45;11.05;;;5.55;;
45077;SDS011;60508;42.622;25.416;2023-09-30T03:42:15;13.10;;;6.00;;
45077;SDS011;60508;42.622;25.416;2023-09-30T03:44:52;7.72;;;5.60;;
45077;SDS011;60508;42.622;25.416;2023-09-30T03:47:19;18.50;;;6.57;;
45077;SDS011;60508;42.622;25.416;2023-09-30T03:49:46;10.27;;;6.18;;
45077;SDS011;60508;42.622;25.416;2023-09-30T03:52:14;18.83;;;6.30;;
45077;SDS011;60508;42.622;25.416;2023-09-30T03:54:41;21.98;;;8.35;;
45077;SDS011;60508;42.622;25.416;2023-09-30T03:57:17;18.02;;;7.68;;
45077;SDS011;60508;42.622;25.416;2023-09-30T03:59:45;21.10;;;6.97;;
45077;SDS011;60508;42.622;25.416;2023-09-30T04:02:12;18.77;;;8.02;;
45077;SDS011;60508;42.622;25.416;2023-09-30T04:04:47;6.85;;;6.05;;
45077;SDS011;60508;42.622;25.416;2023-09-30T04:07:17;23.77;;;5.93;;
45077;SDS011;60508;42.622;25.416;2023-09-30T04:09:43;15.95;;;5.70;;
45077;SDS011;60508;42.622;25.416;2023-09-30T04:12:10;12.30;;;5.35;;
45077;SDS011;60508;42.622;25.416;2023-09-30T04:14:47;12.73;;;5.47;;
45077;SDS011;60508;42.622;25.416;2023-09-30T04:17:14;13.63;;;5.70;;
45077;SDS011;60508;42.622;25.416;2023-09-30T04:19:41;22.50;;;8.05;;
45077;SDS011;60508;42.622;25.416;2023-09-30T04:22:08;10.70;;;6.03;;
45077;SDS011;60508;42.622;25.416;2023-09-30T04:24:44;21.10;;;7.15;;
45077;SDS011;60508;42.622;25.416;2023-09-30T04:27:11;18.55;;;9.95;;
45077;SDS011;60508;42.622;25.416;2023-09-30T04:29:38;17.73;;;8.07;;
45077;SDS011;60508;42.622;25.416;2023-09-30T04:32:15;21.45;;;9.20;;
45077;SDS011;60508;42.622;25.416;2023-09-30T04:34:42;17.38;;;6.80;;
45077;SDS011;60508;42.622;25.416;2023-09-30T04:37:09;18.33;;;8.30;;
45077;SDS011;60508;42.622;25.416;2023-09-30T04:39:46;16.60;;;8.57;;
45077;SDS011;60508;42.622;25.416;2023-09-30T04:42:12;22.85;;;11.80;;
45077;SDS011;60508;42.622;25.416;2023-09-30T04:44:39;26.83;;;10.85;;
45077;SDS011;60508;42.622;25.416;2023-09-30T04:47:18;24.37;;;10.33;;
45077;SDS011;60508;42.622;25.416;2023-09-30T04:49:45;16.63;;;8.88;;
45077;SDS011;60508;42.622;25.416;2023-09-30T04:52:11;23.98;;;10.88;;
45077;SDS011;60508;42.622;25.416;2023-09-30T04:54:38;18.40;;;10.30;;
45077;SDS011;60508;42.622;25.416;2023-09-30T04:57:05;24.40;;;9.35;;
45077;SDS011;60508;42.622;25.416;2023-09-30T04:59:41;13.30;;;8.73;;
45077;SDS011;60508;42.622;25.416;2023-09-30T05:02:09;24.02;;;11.93;;
45077;SDS011;60508;42.622;25.416;2023-09-30T05:04:37;19.88;;;6.45;;
45077;SDS011;60508;42.622;25.416;2023-09-30T05:07:11;27.60;;;7.03;;
45077;SDS011;60508;42.622;25.416;2023-09-30T05:09:39;22.25;;;11.13;;
45077;SDS011;60508;42.622;25.416;2023-09-30T05:12:06;17.95;;;8.15;;
45077;SDS011;60508;42.622;25.416;2023-09-30T05:14:43;17.48;;;8.88;;
45077;SDS011;60508;42.622;25.416;2023-09-30T05:17:10;24.40;;;9.75;;
45077;SDS011;60508;42.622;25.416;2023-09-30T05:19:36;22.83;;;9.32;;
45077;SDS011;60508;42.622;25.416;2023-09-30T05:22:10;12.98;;;8.63;;
45077;SDS011;60508;42.622;25.416;2023-09-30T05:24:38;13.13;;;7.38;;
45077;SDS011;60508;42.622;25.416;2023-09-30T05:27:04;25.45;;;9.38;;
45077;SDS011;60508;42.622;25.416;2023-09-30T05:29:42;16.52;;;10.18;;
45077;SDS011;60508;42.622;25.416;2023-09-30T05:32:09;17.85;;;7.72;;
45077;SDS011;60508;42.622;25.416;2023-09-30T05:34:36;18.02;;;9.32;;
45077;SDS011;60508;42.622;25.416;2023-09-30T05:37:05;22.05;;;8.95;;
45077;SDS011;60508;42.622;25.416;2023-09-30T05:39:32;21.27;;;9.77;;
45077;SDS011;60508;42.622;25.416;2023-09-30T05:42:09;22.23;;;7.60;;
45077;SDS011;60508;42.622;25.416;2023-09-30T05:44:37;19.27;;;7.68;;
45077;SDS011;60508;42.622;25.416;2023-09-30T05:47:04;12.60;;;7.30;;
45077;SDS011;60508;42.622;25.416;2023-09-30T05:49:31;20.73;;;9.77;;
45077;SDS011;60508;42.622;25.416;2023-09-30T05:51:58;23.08;;;9.43;;
45077;SDS011;60508;42.622;25.416;2023-09-30T05:54:25;19.58;;;11.45;;
45077;SDS011;60508;42.622;25.416;2023-09-30T05:56:52;28.67;;;9.32;;
45077;SDS011;60508;42.622;25.416;2023-09-30T05:59:31;18.95;;;8.65;;
45077;SDS011;60508;42.622;25.416;2023-09-30T06:01:57;33.08;;;9.63;;
45077;SDS011;60508;42.622;25.416;2023-09-30T06:04:25;32.28;;;9.38;;
45077;SDS011;60508;42.622;25.416;2023-09-30T06:06:51;15.10;;;6.97;;
45077;SDS011;60508;42.622;25.416;2023-09-30T06:09:19;44.92;;;10.05;;
45077;SDS011;60508;42.622;25.416;2023-09-30T06:11:47;23.17;;;7.50;;
45077;SDS011;60508;42.622;25.416;2023-09-30T06:14:14;20.63;;;7.43;;
45077;SDS011;60508;42.622;25.416;2023-09-30T06:16:51;17.80;;;7.78;;
45077;SDS011;60508;42.622;25.416;2023-09-30T06:19:17;19.08;;;7.75;;
45077;SDS011;60508;42.622;25.416;2023-09-30T06:21:44;18.95;;;6.45;;
45077;SDS011;60508;42.622;25.416;2023-09-30T06:24:21;26.02;;;10.02;;
45077;SDS011;60508;42.622;25.416;2023-09-30T06:26:48;23.05;;;11.05;;
45077;SDS011;60508;42.622;25.416;2023-09-30T06:29:15;20.60;;;8.38;;
45077;SDS011;60508;42.622;25.416;2023-09-30T06:31:41;19.73;;;7.82;;
45077;SDS011;60508;42.622;25.416;2023-09-30T06:34:19;17.27;;;10.45;;
45077;SDS011;60508;42.622;25.416;2023-09-30T06:36:46;18.88;;;8.98;;
45077;SDS011;60508;42.622;25.416;2023-09-30T06:39:13;20.98;;;9.10;;
45077;SDS011;60508;42.622;25.416;2023-09-30T06:41:50;18.17;;;10.80;;
45077;SDS011;60508;42.622;25.416;2023-09-30T06:44:17;18.27;;;8.40;;
45077;SDS011;60508;42.622;25.416;2023-09-30T06:46:44;12.65;;;6.60;;
45077;SDS011;60508;42.622;25.416;2023-09-30T06:49:11;20.77;;;6.40;;
45077;SDS011;60508;42.622;25.416;2023-09-30T06:51:43;18.25;;;8.30;;
45077;SDS011;60508;42.622;25.416;2023-09-30T06:54:10;18.73;;;8.88;;
45077;SDS011;60508;42.622;25.416;2023-09-30T06:56:36;29.90;;;8.50;;
45077;SDS011;60508;42.622;25.416;2023-09-30T06:59:03;20.73;;;5.47;;
45077;SDS011;60508;42.622;25.416;2023-09-30T07:01:30;15.85;;;5.43;;
45077;SDS011;60508;42.622;25.416;2023-09-30T07:03:57;14.52;;;5.97;;
45077;SDS011;60508;42.622;25.416;2023-09-30T07:06:24;15.95;;;5.22;;
45077;SDS011;60508;42.622;25.416;2023-09-30T07:08:51;8.98;;;5.45;;
45077;SDS011;60508;42.622;25.416;2023-09-30T07:11:29;12.32;;;5.40;;
45077;SDS011;60508;42.622;25.416;2023-09-30T07:13:58;14.23;;;4.47;;
45077;SDS011;60508;42.622;25.416;2023-09-30T07:16:26;15.13;;;5.32;;
45077;SDS011;60508;42.622;25.416;2023-09-30T07:18:53;9.63;;;3.90;;
45077;SDS011;60508;42.622;25.416;2023-09-30T07:21:20;8.50;;;4.55;;
45077;SDS011;60508;42.622;25.416;2023-09-30T07:23:47;8.73;;;3.83;;
45077;SDS011;60508;42.622;25.416;2023-09-30T07:26:14;16.83;;;5.43;;
45077;SDS011;60508;42.622;25.416;2023-09-30T07:28:52;12.85;;;4.47;;
45077;SDS011;60508;42.622;25.416;2023-09-30T07:31:20;10.82;;;4.40;;
45077;SDS011;60508;42.622;25.416;2023-09-30T07:33:47;11.38;;;4.68;;
45077;SDS011;60508;42.622;25.416;2023-09-30T07:36:14;13.25;;;4.03;;
45077;SDS011;60508;42.622;25.416;2023-09-30T07:38:41;12.55;;;4.47;;
45077;SDS011;60508;42.622;25.416;2023-09-30T07:41:08;13.10;;;3.75;;
45077;SDS011;60508;42.622;25.416;2023-09-30T07:43:46;18.67;;;4.13;;
45077;SDS011;60508;42.622;25.416;2023-09-30T07:46:13;12.32;;;3.72;;
45077;SDS011;60508;42.622;25.416;2023-09-30T07:48:42;11.50;;;3.65;;
45077;SDS011;60508;42.622;25.416;2023-09-30T07:51:08;11.45;;;4.50;;
45077;SDS011;60508;42.622;25.416;2023-09-30T07:53:49;15.48;;;3.58;;
45077;SDS011;60508;42.622;25.416;2023-09-30T07:56:16;16.65;;;3.60;;
45077;SDS011;60508;42.622;25.416;2023-09-30T07:58:44;15.15;;;4.82;;
45077;SDS011;60508;42.622;25.416;2023-09-30T08:01:10;8.50;;;3.53;;
45077;SDS011;60508;42.622;25.416;2023-09-30T08:03:37;19.40;;;4.32;;
45077;SDS011;60508;42.622;25.416;2023-09-30T08:06:16;8.27;;;3.55;;
45077;SDS011;60508;42.622;25.416;2023-09-30T08:08:43;12.02;;;3.70;;
45077;SDS011;60508;42.622;25.416;2023-09-30T08:11:10;12.43;;;4.03;;
45077;SDS011;60508;42.622;25.416;2023-09-30T08:13:36;8.85;;;3.75;;
45077;SDS011;60508;42.622;25.416;2023-09-30T08:16:11;8.23;;;3.53;;
45077;SDS011;60508;42.622;25.416;2023-09-30T08:18:38;12.10;;;4.35;;
45077;SDS011;60508;42.622;25.416;2023-09-30T08:21:08;5.82;;;3.67;;
45077;SDS011;60508;42.622;25.416;2023-09-30T08:23:36;12.07;;;3.53;;
45077;SDS011;60508;42.622;25.416;2023-09-30T08:26:03;12.05;;;3.42;;
45077;SDS011;60508;42.622;25.416;2023-09-30T08:28:32;12.30;;;3.70;;
45077;SDS011;60508;42.622;25.416;2023-09-30T08:31:09;10.85;;;3.60;;
45077;SDS011;60508;42.622;25.416;2023-09-30T08:33:36;8.55;;;4.15;;
45077;SDS011;60508;42.622;25.416;2023-09-30T08:36:03;8.57;;;2.75;;
45077;SDS011;60508;42.622;25.416;2023-09-30T08:38:35;11.40;;;4.05;;
45077;SDS011;60508;42.622;25.416;2023-09-30T08:41:03;20.67;;;3.55;;
45077;SDS011;60508;42.622;25.416;2023-09-30T08:43:30;14.75;;;3.03;;
45077;SDS011;60508;42.622;25.416;2023-09-30T08:45:58;11.95;;;3.63;;
45077;SDS011;60508;42.622;25.416;2023-09-30T08:48:27;18.38;;;3.88;;
45077;SDS011;60508;42.622;25.416;2023-09-30T08:50:55;10.27;;;3.33;;
45077;SDS011;60508;42.622;25.416;2023-09-30T08:53:24;10.63;;;4.55;;
45077;SDS011;60508;42.622;25.416;2023-09-30T08:55:54;21.95;;;5.45;;
45077;SDS011;60508;42.622;25.416;2023-09-30T08:58:28;13.85;;;5.57;;
45077;SDS011;60508;42.622;25.416;2023-09-30T09:00:55;15.57;;;4.53;;
45077;SDS011;60508;42.622;25.416;2023-09-30T09:03:30;12.65;;;3.75;;
45077;SDS011;60508;42.622;25.416;2023-09-30T09:05:57;12.75;;;4.60;;
45077;SDS011;60508;42.622;25.416;2023-09-30T09:08:26;9.70;;;3.57;;
45077;SDS011;60508;42.622;25.416;2023-09-30T09:11:02;11.48;;;3.17;;
45077;SDS011;60508;42.622;25.416;2023-09-30T09:13:44;8.82;;;4.20;;
45077;SDS011;60508;42.622;25.416;2023-09-30T09:16:22;15.70;;;4.07;;
45077;SDS011;60508;42.622;25.416;2023-09-30T09:18:49;18.17;;;4.13;;
45077;SDS011;60508;42.622;25.416;2023-09-30T09:21:17;24.48;;;4.65;;
45077;SDS011;60508;42.622;25.416;2023-09-30T09:23:55;14.35;;;4.05;;
45077;SDS011;60508;42.622;25.416;2023-09-30T09:26:27;12.95;;;3.92;;
45077;SDS011;60508;42.622;25.416;2023-09-30T09:28:58;9.45;;;3.63;;
45077;SDS011;60508;42.622;25.416;2023-09-30T09:31:27;21.42;;;5.35;;
45077;SDS011;60508;42.622;25.416;2023-09-30T09:34:03;17.23;;;3.47;;
45077;SDS011;60508;42.622;25.416;2023-09-30T09:36:48;9.27;;;3.47;;
45077;SDS011;60508;42.622;25.416;2023-09-30T09:39:16;23.30;;;3.42;;
